sensor_id;sensor_type;location;lat;lon;timestamp;temperature;humidity
71942;DHT22;59997;53.300;-6.260;2023-03-19T00:01:06;4.39;84.37
71942;DHT22;59997;53.300;-6.260;2023-03-19T00:03:32;4.38;84.11
71942;DHT22;59997;53.300;-6.260;2023-03-19T00:05:58;4.45;83.99
71942;DHT22;59997;53.300;-6.260;2023-03-19T00:08:23;4.41;83.88
71942;DHT22;59997;53.300;-6.260;2023-03-19T00:10:50;4.35;83.89
71942;DHT22;59997;53.300;-6.260;2023-03-19T00:13:16;4.35;83.84
71942;DHT22;59997;53.300;-6.260;2023-03-19T00:15:41;4.41;83.64
71942;DHT22;59997;53.300;-6.260;2023-03-19T00:18:07;4.39;83.67
71942;DHT22;59997;53.300;-6.260;2023-03-19T00:20:33;4.34;83.74
71942;DHT22;59997;53.300;-6.260;2023-03-19T00:22:58;4.25;83.73
71942;DHT22;59997;53.300;-6.260;2023-03-19T00:25:24;4.17;83.86
71942;DHT22;59997;53.300;-6.260;2023-03-19T00:27:49;4.17;83.57
71942;DHT22;59997;53.300;-6.260;2023-03-19T00:30:16;4.13;83.38
71942;DHT22;59997;53.300;-6.260;2023-03-19T00:32:42;4.15;82.89
71942;DHT22;59997;53.300;-6.260;2023-03-19T00:35:08;4.08;82.84
71942;DHT22;59997;53.300;-6.260;2023-03-19T00:37:34;4.03;82.70
71942;DHT22;59997;53.300;-6.260;2023-03-19T00:40:00;4.00;82.61
71942;DHT22;59997;53.300;-6.260;2023-03-19T00:42:26;4.07;82.32
71942;DHT22;59997;53.300;-6.260;2023-03-19T00:44:51;4.10;82.27
71942;DHT22;59997;53.300;-6.260;2023-03-19T00:47:17;4.08;82.20
71942;DHT22;59997;53.300;-6.260;2023-03-19T00:49:43;3.96;82.24
71942;DHT22;59997;53.300;-6.260;2023-03-19T00:52:08;3.97;82.21
71942;DHT22;59997;53.300;-6.260;2023-03-19T00:54:34;3.97;81.79
71942;DHT22;59997;53.300;-6.260;2023-03-19T00:56:59;4.13;80.74
71942;DHT22;59997;53.300;-6.260;2023-03-19T00:59:25;4.30;80.03
71942;DHT22;59997;53.300;-6.260;2023-03-19T01:01:50;4.37;79.52
71942;DHT22;59997;53.300;-6.260;2023-03-19T01:04:17;4.34;79.70
71942;DHT22;59997;53.300;-6.260;2023-03-19T01:06:43;4.17;80.41
71942;DHT22;59997;53.300;-6.260;2023-03-19T01:09:08;4.08;80.64
71942;DHT22;59997;53.300;-6.260;2023-03-19T01:11:34;4.00;81.06
71942;DHT22;59997;53.300;-6.260;2023-03-19T01:14:00;3.91;81.30
71942;DHT22;59997;53.300;-6.260;2023-03-19T01:16:26;4.01;80.96
71942;DHT22;59997;53.300;-6.260;2023-03-19T01:18:51;3.97;80.93
71942;DHT22;59997;53.300;-6.260;2023-03-19T01:21:18;4.01;80.95
71942;DHT22;59997;53.300;-6.260;2023-03-19T01:23:43;4.07;80.26
71942;DHT22;59997;53.300;-6.260;2023-03-19T01:26:09;4.03;80.12
71942;DHT22;59997;53.300;-6.260;2023-03-19T01:28:34;4.05;80.04
71942;DHT22;59997;53.300;-6.260;2023-03-19T01:31:05;4.05;80.36
71942;DHT22;59997;53.300;-6.260;2023-03-19T01:33:31;4.15;80.11
71942;DHT22;59997;53.300;-6.260;2023-03-19T01:35:58;4.08;80.32
71942;DHT22;59997;53.300;-6.260;2023-03-19T01:38:27;4.10;80.12
71942;DHT22;59997;53.300;-6.260;2023-03-19T01:40:52;4.05;80.43
71942;DHT22;59997;53.300;-6.260;2023-03-19T01:43:20;4.08;80.38
71942;DHT22;59997;53.300;-6.260;2023-03-19T01:45:49;4.04;80.44
71942;DHT22;59997;53.300;-6.260;2023-03-19T01:50:47;4.10;80.36
71942;DHT22;59997;53.300;-6.260;2023-03-19T01:53:16;4.11;80.28
71942;DHT22;59997;53.300;-6.260;2023-03-19T01:55:43;4.13;80.21
71942;DHT22;59997;53.300;-6.260;2023-03-19T01:58:09;4.10;80.38
71942;DHT22;59997;53.300;-6.260;2023-03-19T02:00:36;4.03;80.56
71942;DHT22;59997;53.300;-6.260;2023-03-19T02:03:03;4.10;80.47
71942;DHT22;59997;53.300;-6.260;2023-03-19T02:05:29;4.22;79.43
71942;DHT22;59997;53.300;-6.260;2023-03-19T02:08:02;4.27;79.22
71942;DHT22;59997;53.300;-6.260;2023-03-19T02:10:29;4.30;79.05
71942;DHT22;59997;53.300;-6.260;2023-03-19T02:12:55;4.20;79.09
71942;DHT22;59997;53.300;-6.260;2023-03-19T02:15:21;4.13;79.42
71942;DHT22;59997;53.300;-6.260;2023-03-19T02:17:46;4.08;79.19
71942;DHT22;59997;53.300;-6.260;2023-03-19T02:20:18;4.17;79.05
71942;DHT22;59997;53.300;-6.260;2023-03-19T02:23:06;4.04;79.60
71942;DHT22;59997;53.300;-6.260;2023-03-19T02:28:09;3.96;79.60
71942;DHT22;59997;53.300;-6.260;2023-03-19T02:30:36;3.94;79.84
71942;DHT22;59997;53.300;-6.260;2023-03-19T02:33:02;3.87;79.86
71942;DHT22;59997;53.300;-6.260;2023-03-19T02:35:30;3.90;79.95
71942;DHT22;59997;53.300;-6.260;2023-03-19T02:37:56;3.94;79.69
71942;DHT22;59997;53.300;-6.260;2023-03-19T02:40:24;3.94;79.81
71942;DHT22;59997;53.300;-6.260;2023-03-19T02:42:50;3.90;79.84
71942;DHT22;59997;53.300;-6.260;2023-03-19T02:45:16;3.86;80.24
71942;DHT22;59997;53.300;-6.260;2023-03-19T02:47:42;3.91;80.17
71942;DHT22;59997;53.300;-6.260;2023-03-19T02:50:08;3.97;80.15
71942;DHT22;59997;53.300;-6.260;2023-03-19T02:52:34;4.03;79.98
71942;DHT22;59997;53.300;-6.260;2023-03-19T02:54:59;4.07;79.80
71942;DHT22;59997;53.300;-6.260;2023-03-19T02:57:25;4.11;79.68
71942;DHT22;59997;53.300;-6.260;2023-03-19T02:59:51;4.17;79.49
71942;DHT22;59997;53.300;-6.260;2023-03-19T03:02:16;4.18;79.42
71942;DHT22;59997;53.300;-6.260;2023-03-19T03:04:42;4.14;79.46
71942;DHT22;59997;53.300;-6.260;2023-03-19T03:07:07;4.18;79.36
71942;DHT22;59997;53.300;-6.260;2023-03-19T03:09:33;4.24;79.07
71942;DHT22;59997;53.300;-6.260;2023-03-19T03:11:59;4.27;79.11
71942;DHT22;59997;53.300;-6.260;2023-03-19T03:14:25;4.15;79.33
71942;DHT22;59997;53.300;-6.260;2023-03-19T03:16:50;4.00;79.77
71942;DHT22;59997;53.300;-6.260;2023-03-19T03:19:16;4.03;79.70
71942;DHT22;59997;53.300;-6.260;2023-03-19T03:21:42;3.96;79.93
71942;DHT22;59997;53.300;-6.260;2023-03-19T03:24:07;3.94;80.07
71942;DHT22;59997;53.300;-6.260;2023-03-19T03:26:34;3.85;80.33
71942;DHT22;59997;53.300;-6.260;2023-03-19T03:29:03;3.80;80.56
71942;DHT22;59997;53.300;-6.260;2023-03-19T03:31:29;3.82;80.57
71942;DHT22;59997;53.300;-6.260;2023-03-19T03:33:55;3.75;80.96
71942;DHT22;59997;53.300;-6.260;2023-03-19T03:36:20;3.68;81.06
71942;DHT22;59997;53.300;-6.260;2023-03-19T03:38:46;3.73;80.89
71942;DHT22;59997;53.300;-6.260;2023-03-19T03:41:12;3.76;80.93
71942;DHT22;59997;53.300;-6.260;2023-03-19T03:43:38;3.82;80.78
71942;DHT22;59997;53.300;-6.260;2023-03-19T03:46:04;3.76;80.71
71942;DHT22;59997;53.300;-6.260;2023-03-19T03:48:30;3.75;80.92
71942;DHT22;59997;53.300;-6.260;2023-03-19T03:50:55;3.69;80.96
71942;DHT22;59997;53.300;-6.260;2023-03-19T03:53:21;3.72;80.93
71942;DHT22;59997;53.300;-6.260;2023-03-19T03:55:46;3.68;80.96
71942;DHT22;59997;53.300;-6.260;2023-03-19T03:58:12;3.55;81.30
71942;DHT22;59997;53.300;-6.260;2023-03-19T04:00:38;3.50;81.45
71942;DHT22;59997;53.300;-6.260;2023-03-19T04:03:03;3.28;81.91
71942;DHT22;59997;53.300;-6.260;2023-03-19T04:05:29;3.38;81.81
71942;DHT22;59997;53.300;-6.260;2023-03-19T04:07:55;3.38;81.84
71942;DHT22;59997;53.300;-6.260;2023-03-19T04:10:21;3.35;81.81
71942;DHT22;59997;53.300;-6.260;2023-03-19T04:12:47;3.39;81.69
71942;DHT22;59997;53.300;-6.260;2023-03-19T04:15:14;3.37;81.67
71942;DHT22;59997;53.300;-6.260;2023-03-19T04:17:39;3.41;81.65
71942;DHT22;59997;53.300;-6.260;2023-03-19T04:20:06;3.48;81.34
71942;DHT22;59997;53.300;-6.260;2023-03-19T04:22:32;3.41;81.47
71942;DHT22;59997;53.300;-6.260;2023-03-19T04:24:57;3.39;81.53
71942;DHT22;59997;53.300;-6.260;2023-03-19T04:27:23;3.41;81.27
71942;DHT22;59997;53.300;-6.260;2023-03-19T04:29:48;3.35;81.52
71942;DHT22;59997;53.300;-6.260;2023-03-19T04:32:14;3.39;81.50
71942;DHT22;59997;53.300;-6.260;2023-03-19T04:34:40;3.34;81.48
71942;DHT22;59997;53.300;-6.260;2023-03-19T04:37:06;3.37;81.67
71942;DHT22;59997;53.300;-6.260;2023-03-19T04:39:34;3.58;80.98
71942;DHT22;59997;53.300;-6.260;2023-03-19T04:42:00;3.45;81.28
71942;DHT22;59997;53.300;-6.260;2023-03-19T04:44:25;3.41;81.27
71942;DHT22;59997;53.300;-6.260;2023-03-19T04:46:51;3.32;81.71
71942;DHT22;59997;53.300;-6.260;2023-03-19T04:49:16;3.28;81.65
71942;DHT22;59997;53.300;-6.260;2023-03-19T04:51:42;3.24;81.90
71942;DHT22;59997;53.300;-6.260;2023-03-19T04:54:08;3.52;81.10
71942;DHT22;59997;53.300;-6.260;2023-03-19T04:56:34;3.55;80.86
71942;DHT22;59997;53.300;-6.260;2023-03-19T04:58:59;3.48;80.99
71942;DHT22;59997;53.300;-6.260;2023-03-19T05:01:25;3.46;80.95
71942;DHT22;59997;53.300;-6.260;2023-03-19T05:03:51;3.55;80.88
71942;DHT22;59997;53.300;-6.260;2023-03-19T05:06:16;3.51;80.76
71942;DHT22;59997;53.300;-6.260;2023-03-19T05:08:44;3.65;80.47
71942;DHT22;59997;53.300;-6.260;2023-03-19T05:11:10;3.90;79.55
71942;DHT22;59997;53.300;-6.260;2023-03-19T05:13:35;3.76;79.91
71942;DHT22;59997;53.300;-6.260;2023-03-19T05:16:01;3.62;80.26
71942;DHT22;59997;53.300;-6.260;2023-03-19T05:18:26;3.54;80.71
71942;DHT22;59997;53.300;-6.260;2023-03-19T05:20:53;3.68;80.33
71942;DHT22;59997;53.300;-6.260;2023-03-19T05:23:20;3.61;80.39
71942;DHT22;59997;53.300;-6.260;2023-03-19T05:25:45;3.54;80.46
71942;DHT22;59997;53.300;-6.260;2023-03-19T05:28:12;3.48;80.72
71942;DHT22;59997;53.300;-6.260;2023-03-19T05:30:38;3.34;80.82
71942;DHT22;59997;53.300;-6.260;2023-03-19T05:33:04;3.38;80.92
71942;DHT22;59997;53.300;-6.260;2023-03-19T05:35:30;3.37;80.97
71942;DHT22;59997;53.300;-6.260;2023-03-19T05:37:56;3.27;81.09
71942;DHT22;59997;53.300;-6.260;2023-03-19T05:40:22;3.23;81.14
71942;DHT22;59997;53.300;-6.260;2023-03-19T05:42:48;3.21;81.22
71942;DHT22;59997;53.300;-6.260;2023-03-19T05:45:15;3.09;81.80
71942;DHT22;59997;53.300;-6.260;2023-03-19T05:47:42;3.04;81.78
71942;DHT22;59997;53.300;-6.260;2023-03-19T05:50:09;3.04;81.76
71942;DHT22;59997;53.300;-6.260;2023-03-19T05:52:35;2.91;82.17
71942;DHT22;59997;53.300;-6.260;2023-03-19T05:55:01;2.97;82.14
71942;DHT22;59997;53.300;-6.260;2023-03-19T05:57:27;2.92;82.24
71942;DHT22;59997;53.300;-6.260;2023-03-19T05:59:52;2.97;82.05
71942;DHT22;59997;53.300;-6.260;2023-03-19T06:02:18;3.03;81.90
71942;DHT22;59997;53.300;-6.260;2023-03-19T06:04:43;2.83;82.14
71942;DHT22;59997;53.300;-6.260;2023-03-19T06:07:09;2.81;82.38
71942;DHT22;59997;53.300;-6.260;2023-03-19T06:09:35;2.74;82.32
71942;DHT22;59997;53.300;-6.260;2023-03-19T06:12:00;2.54;82.57
71942;DHT22;59997;53.300;-6.260;2023-03-19T06:14:26;2.71;82.72
71942;DHT22;59997;53.300;-6.260;2023-03-19T06:16:51;2.75;82.49
71942;DHT22;59997;53.300;-6.260;2023-03-19T06:19:16;2.78;82.40
71942;DHT22;59997;53.300;-6.260;2023-03-19T06:21:42;2.74;82.50
71942;DHT22;59997;53.300;-6.260;2023-03-19T06:24:07;2.69;82.56
71942;DHT22;59997;53.300;-6.260;2023-03-19T06:26:33;2.54;82.81
71942;DHT22;59997;53.300;-6.260;2023-03-19T06:28:58;2.55;83.05
71942;DHT22;59997;53.300;-6.260;2023-03-19T06:31:24;2.57;83.03
71942;DHT22;59997;53.300;-6.260;2023-03-19T06:33:50;2.50;83.19
71942;DHT22;59997;53.300;-6.260;2023-03-19T06:36:15;2.48;83.32
71942;DHT22;59997;53.300;-6.260;2023-03-19T06:38:41;2.50;83.23
71942;DHT22;59997;53.300;-6.260;2023-03-19T06:41:07;2.47;83.40
71942;DHT22;59997;53.300;-6.260;2023-03-19T06:43:32;2.48;83.48
71942;DHT22;59997;53.300;-6.260;2023-03-19T06:46:02;2.38;83.53
71942;DHT22;59997;53.300;-6.260;2023-03-19T06:48:28;2.44;83.65
71942;DHT22;59997;53.300;-6.260;2023-03-19T06:50:53;2.47;83.58
71942;DHT22;59997;53.300;-6.260;2023-03-19T06:53:19;2.42;83.63
71942;DHT22;59997;53.300;-6.260;2023-03-19T06:55:45;2.41;83.71
71942;DHT22;59997;53.300;-6.260;2023-03-19T06:58:11;2.54;83.57
71942;DHT22;59997;53.300;-6.260;2023-03-19T07:00:36;2.71;83.21
71942;DHT22;59997;53.300;-6.260;2023-03-19T07:03:02;2.86;82.75
71942;DHT22;59997;53.300;-6.260;2023-03-19T07:05:27;2.96;82.28
71942;DHT22;59997;53.300;-6.260;2023-03-19T07:07:53;3.11;81.99
71942;DHT22;59997;53.300;-6.260;2023-03-19T07:10:19;3.31;81.30
71942;DHT22;59997;53.300;-6.260;2023-03-19T07:12:45;3.39;81.17
71942;DHT22;59997;53.300;-6.260;2023-03-19T07:15:11;3.48;80.94
71942;DHT22;59997;53.300;-6.260;2023-03-19T07:17:37;3.58;80.68
71942;DHT22;59997;53.300;-6.260;2023-03-19T07:20:02;3.78;79.97
71942;DHT22;59997;53.300;-6.260;2023-03-19T07:22:28;3.91;79.62
71942;DHT22;59997;53.300;-6.260;2023-03-19T07:24:53;4.00;79.53
71942;DHT22;59997;53.300;-6.260;2023-03-19T07:27:19;4.03;79.63
71942;DHT22;59997;53.300;-6.260;2023-03-19T07:29:45;4.13;79.49
71942;DHT22;59997;53.300;-6.260;2023-03-19T07:32:10;4.15;79.14
71942;DHT22;59997;53.300;-6.260;2023-03-19T07:34:36;4.30;78.97
71942;DHT22;59997;53.300;-6.260;2023-03-19T07:37:01;4.49;78.37
71942;DHT22;59997;53.300;-6.260;2023-03-19T07:39:27;4.60;78.15
71942;DHT22;59997;53.300;-6.260;2023-03-19T07:41:52;4.66;78.32
71942;DHT22;59997;53.300;-6.260;2023-03-19T07:44:18;4.72;78.30
71942;DHT22;59997;53.300;-6.260;2023-03-19T07:46:43;4.79;78.23
71942;DHT22;59997;53.300;-6.260;2023-03-19T07:49:09;5.01;77.18
71942;DHT22;59997;53.300;-6.260;2023-03-19T07:51:34;5.09;77.11
71942;DHT22;59997;53.300;-6.260;2023-03-19T07:54:00;5.21;76.39
71942;DHT22;59997;53.300;-6.260;2023-03-19T07:56:26;5.28;76.19
71942;DHT22;59997;53.300;-6.260;2023-03-19T07:58:51;5.33;75.80
71942;DHT22;59997;53.300;-6.260;2023-03-19T08:01:17;5.42;75.83
71942;DHT22;59997;53.300;-6.260;2023-03-19T08:03:43;5.54;74.95
71942;DHT22;59997;53.300;-6.260;2023-03-19T08:06:08;5.73;74.72
71942;DHT22;59997;53.300;-6.260;2023-03-19T08:08:34;5.78;74.09
71942;DHT22;59997;53.300;-6.260;2023-03-19T08:11:00;5.79;73.93
71942;DHT22;59997;53.300;-6.260;2023-03-19T08:13:26;5.87;73.89
71942;DHT22;59997;53.300;-6.260;2023-03-19T08:15:52;5.99;73.58
71942;DHT22;59997;53.300;-6.260;2023-03-19T08:18:18;6.13;73.15
71942;DHT22;59997;53.300;-6.260;2023-03-19T08:20:44;6.29;73.39
71942;DHT22;59997;53.300;-6.260;2023-03-19T08:23:11;6.47;71.81
71942;DHT22;59997;53.300;-6.260;2023-03-19T08:25:37;6.60;72.14
71942;DHT22;59997;53.300;-6.260;2023-03-19T08:28:03;6.93;71.27
71942;DHT22;59997;53.300;-6.260;2023-03-19T08:30:28;7.15;70.75
71942;DHT22;59997;53.300;-6.260;2023-03-19T08:32:55;7.43;70.44
71942;DHT22;59997;53.300;-6.260;2023-03-19T08:35:20;7.64;70.41
71942;DHT22;59997;53.300;-6.260;2023-03-19T08:37:46;7.69;69.38
71942;DHT22;59997;53.300;-6.260;2023-03-19T08:40:12;7.78;68.40
71942;DHT22;59997;53.300;-6.260;2023-03-19T08:42:37;8.21;67.52
71942;DHT22;59997;53.300;-6.260;2023-03-19T08:45:07;8.65;67.04
71942;DHT22;59997;53.300;-6.260;2023-03-19T08:47:33;8.73;65.46
71942;DHT22;59997;53.300;-6.260;2023-03-19T08:49:58;9.49;64.07
71942;DHT22;59997;53.300;-6.260;2023-03-19T08:52:24;10.31;63.09
71942;DHT22;59997;53.300;-6.260;2023-03-19T08:54:49;10.76;60.08
71942;DHT22;59997;53.300;-6.260;2023-03-19T08:57:15;10.84;58.76
71942;DHT22;59997;53.300;-6.260;2023-03-19T08:59:40;10.87;58.67
71942;DHT22;59997;53.300;-6.260;2023-03-19T09:02:06;11.44;57.30
71942;DHT22;59997;53.300;-6.260;2023-03-19T09:04:31;11.57;56.55
71942;DHT22;59997;53.300;-6.260;2023-03-19T09:07:01;12.15;56.21
71942;DHT22;59997;53.300;-6.260;2023-03-19T09:09:26;12.85;55.00
71942;DHT22;59997;53.300;-6.260;2023-03-19T09:11:52;12.91;52.15
71942;DHT22;59997;53.300;-6.260;2023-03-19T09:14:17;12.85;52.44
71942;DHT22;59997;53.300;-6.260;2023-03-19T09:16:44;12.99;52.22
71942;DHT22;59997;53.300;-6.260;2023-03-19T09:19:10;12.89;53.61
71942;DHT22;59997;53.300;-6.260;2023-03-19T09:21:36;13.02;52.18
71942;DHT22;59997;53.300;-6.260;2023-03-19T09:24:02;12.71;51.63
71942;DHT22;59997;53.300;-6.260;2023-03-19T09:26:28;12.44;52.34
71942;DHT22;59997;53.300;-6.260;2023-03-19T09:28:53;12.95;53.18
71942;DHT22;59997;53.300;-6.260;2023-03-19T09:31:19;13.33;51.24
71942;DHT22;59997;53.300;-6.260;2023-03-19T09:33:44;12.75;53.14
71942;DHT22;59997;53.300;-6.260;2023-03-19T09:36:10;12.50;53.97
71942;DHT22;59997;53.300;-6.260;2023-03-19T09:38:35;12.49;53.47
71942;DHT22;59997;53.300;-6.260;2023-03-19T09:44:02;12.29;53.87
71942;DHT22;59997;53.300;-6.260;2023-03-19T09:49:29;11.98;55.50
71942;DHT22;59997;53.300;-6.260;2023-03-19T09:54:55;11.40;55.84
71942;DHT22;59997;53.300;-6.260;2023-03-19T09:57:22;11.49;54.94
71942;DHT22;59997;53.300;-6.260;2023-03-19T09:59:48;11.50;55.81
71942;DHT22;59997;53.300;-6.260;2023-03-19T10:07:58;10.55;57.36
71942;DHT22;59997;53.300;-6.260;2023-03-19T10:15:36;10.83;56.34
71942;DHT22;59997;53.300;-6.260;2023-03-19T10:18:11;10.95;58.14
71942;DHT22;59997;53.300;-6.260;2023-03-19T10:23:56;11.63;59.29
71942;DHT22;59997;53.300;-6.260;2023-03-19T10:26:28;11.69;55.91
71942;DHT22;59997;53.300;-6.260;2023-03-19T10:29:21;11.53;54.78
71942;DHT22;59997;53.300;-6.260;2023-03-19T10:34:33;11.46;56.26
71942;DHT22;59997;53.300;-6.260;2023-03-19T10:37:03;11.52;55.47
71942;DHT22;59997;53.300;-6.260;2023-03-19T10:39:34;11.39;57.60
71942;DHT22;59997;53.300;-6.260;2023-03-19T10:44:55;10.77;57.46
71942;DHT22;59997;53.300;-6.260;2023-03-19T10:47:26;10.78;58.87
71942;DHT22;59997;53.300;-6.260;2023-03-19T10:49:52;10.74;57.98
71942;DHT22;59997;53.300;-6.260;2023-03-19T10:52:23;10.78;58.45
71942;DHT22;59997;53.300;-6.260;2023-03-19T10:55:02;10.63;58.62
71942;DHT22;59997;53.300;-6.260;2023-03-19T10:57:29;10.43;58.74
71942;DHT22;59997;53.300;-6.260;2023-03-19T11:00:05;10.29;58.96
71942;DHT22;59997;53.300;-6.260;2023-03-19T11:02:30;10.35;61.65
71942;DHT22;59997;53.300;-6.260;2023-03-19T11:05:24;10.32;58.70
71942;DHT22;59997;53.300;-6.260;2023-03-19T11:08:14;10.46;60.26
71942;DHT22;59997;53.300;-6.260;2023-03-19T11:10:47;10.31;60.08
71942;DHT22;59997;53.300;-6.260;2023-03-19T11:13:24;10.53;60.21
71942;DHT22;59997;53.300;-6.260;2023-03-19T11:15:51;10.63;60.61
71942;DHT22;59997;53.300;-6.260;2023-03-19T11:18:34;11.01;58.83
71942;DHT22;59997;53.300;-6.260;2023-03-19T11:21:23;11.25;58.13
71942;DHT22;59997;53.300;-6.260;2023-03-19T11:23:59;11.49;58.64
71942;DHT22;59997;53.300;-6.260;2023-03-19T11:26:25;11.57;56.81
71942;DHT22;59997;53.300;-6.260;2023-03-19T11:28:53;11.69;56.99
71942;DHT22;59997;53.300;-6.260;2023-03-19T11:31:36;12.08;55.84
71942;DHT22;59997;53.300;-6.260;2023-03-19T11:37:30;11.91;55.48
71942;DHT22;59997;53.300;-6.260;2023-03-19T11:45:16;12.54;53.15
71942;DHT22;59997;53.300;-6.260;2023-03-19T11:50:32;12.28;54.75
71942;DHT22;59997;53.300;-6.260;2023-03-19T11:56:01;13.05;52.58
71942;DHT22;59997;53.300;-6.260;2023-03-19T12:06:33;14.54;49.75
71942;DHT22;59997;53.300;-6.260;2023-03-19T12:09:08;14.95;52.28
71942;DHT22;59997;53.300;-6.260;2023-03-19T12:11:52;14.69;53.08
71942;DHT22;59997;53.300;-6.260;2023-03-19T12:14:30;13.89;52.97
71942;DHT22;59997;53.300;-6.260;2023-03-19T12:17:26;13.26;53.47
71942;DHT22;59997;53.300;-6.260;2023-03-19T12:23:05;12.75;54.12
71942;DHT22;59997;53.300;-6.260;2023-03-19T12:28:29;12.64;55.45
71942;DHT22;59997;53.300;-6.260;2023-03-19T12:39:38;11.10;57.41
71942;DHT22;59997;53.300;-6.260;2023-03-19T12:42:09;10.63;58.32
71942;DHT22;59997;53.300;-6.260;2023-03-19T12:44:45;10.59;60.06
71942;DHT22;59997;53.300;-6.260;2023-03-19T12:47:25;10.45;60.11
71942;DHT22;59997;53.300;-6.260;2023-03-19T12:50:00;10.32;60.01
71942;DHT22;59997;53.300;-6.260;2023-03-19T12:52:37;10.42;59.80
71942;DHT22;59997;53.300;-6.260;2023-03-19T12:55:44;10.50;60.48
71942;DHT22;59997;53.300;-6.260;2023-03-19T12:58:24;10.63;59.39
71942;DHT22;59997;53.300;-6.260;2023-03-19T13:01:02;10.70;59.53
71942;DHT22;59997;53.300;-6.260;2023-03-19T13:03:45;10.73;58.50
71942;DHT22;59997;53.300;-6.260;2023-03-19T13:06:34;10.87;58.56
71942;DHT22;59997;53.300;-6.260;2023-03-19T13:11:41;10.94;59.28
71942;DHT22;59997;53.300;-6.260;2023-03-19T13:14:35;10.95;58.76
71942;DHT22;59997;53.300;-6.260;2023-03-19T13:17:28;10.77;60.63
71942;DHT22;59997;53.300;-6.260;2023-03-19T13:19:57;10.63;61.09
71942;DHT22;59997;53.300;-6.260;2023-03-19T13:22:29;10.52;61.34
71942;DHT22;59997;53.300;-6.260;2023-03-19T13:24:58;10.59;61.49
71942;DHT22;59997;53.300;-6.260;2023-03-19T13:27:32;10.71;61.49
71942;DHT22;59997;53.300;-6.260;2023-03-19T13:35:26;11.21;59.03
71942;DHT22;59997;53.300;-6.260;2023-03-19T13:38:00;11.35;58.84
71942;DHT22;59997;53.300;-6.260;2023-03-19T13:43:22;11.25;61.62
71942;DHT22;59997;53.300;-6.260;2023-03-19T13:59:31;9.90;61.58
71942;DHT22;59997;53.300;-6.260;2023-03-19T14:01:57;9.84;63.61
71942;DHT22;59997;53.300;-6.260;2023-03-19T14:04:26;9.70;63.44
71942;DHT22;59997;53.300;-6.260;2023-03-19T14:07:15;9.53;65.33
71942;DHT22;59997;53.300;-6.260;2023-03-19T14:10:01;9.42;65.19
71942;DHT22;59997;53.300;-6.260;2023-03-19T14:12:40;9.31;63.37
71942;DHT22;59997;53.300;-6.260;2023-03-19T14:17:35;9.27;64.41
71942;DHT22;59997;53.300;-6.260;2023-03-19T14:20:31;9.30;64.68
71942;DHT22;59997;53.300;-6.260;2023-03-19T14:23:17;9.24;65.65
71942;DHT22;59997;53.300;-6.260;2023-03-19T14:26:15;9.14;66.42
71942;DHT22;59997;53.300;-6.260;2023-03-19T14:28:57;9.06;67.30
71942;DHT22;59997;53.300;-6.260;2023-03-19T14:31:47;8.96;68.19
71942;DHT22;59997;53.300;-6.260;2023-03-19T14:34:35;8.79;67.73
71942;DHT22;59997;53.300;-6.260;2023-03-19T14:37:25;8.62;67.27
71942;DHT22;59997;53.300;-6.260;2023-03-19T14:40:00;8.54;67.37
71942;DHT22;59997;53.300;-6.260;2023-03-19T14:42:31;8.48;67.34
71942;DHT22;59997;53.300;-6.260;2023-03-19T14:53:40;8.26;73.38
71942;DHT22;59997;53.300;-6.260;2023-03-19T14:56:14;8.14;72.89
71942;DHT22;59997;53.300;-6.260;2023-03-19T14:58:56;7.96;71.88
71942;DHT22;59997;53.300;-6.260;2023-03-19T15:01:23;7.87;73.29
71942;DHT22;59997;53.300;-6.260;2023-03-19T15:03:57;7.82;73.20
71942;DHT22;59997;53.300;-6.260;2023-03-19T15:06:33;7.89;73.12
71942;DHT22;59997;53.300;-6.260;2023-03-19T15:08:59;7.82;74.41
71942;DHT22;59997;53.300;-6.260;2023-03-19T15:11:49;7.82;75.41
71942;DHT22;59997;53.300;-6.260;2023-03-19T15:14:42;7.69;76.27
71942;DHT22;59997;53.300;-6.260;2023-03-19T15:17:15;7.57;77.01
71942;DHT22;59997;53.300;-6.260;2023-03-19T15:19:42;7.50;77.26
71942;DHT22;59997;53.300;-6.260;2023-03-19T15:22:28;7.48;77.36
71942;DHT22;59997;53.300;-6.260;2023-03-19T15:25:05;7.43;77.85
71942;DHT22;59997;53.300;-6.260;2023-03-19T15:27:31;7.40;79.65
71942;DHT22;59997;53.300;-6.260;2023-03-19T15:29:56;7.38;80.22
71942;DHT22;59997;53.300;-6.260;2023-03-19T15:32:51;7.33;81.24
71942;DHT22;59997;53.300;-6.260;2023-03-19T15:35:17;7.19;82.78
71942;DHT22;59997;53.300;-6.260;2023-03-19T15:37:46;7.13;82.92
71942;DHT22;59997;53.300;-6.260;2023-03-19T15:40:14;7.10;82.69
71942;DHT22;59997;53.300;-6.260;2023-03-19T15:42:44;7.00;82.86
71942;DHT22;59997;53.300;-6.260;2023-03-19T15:45:13;6.95;83.48
71942;DHT22;59997;53.300;-6.260;2023-03-19T15:47:52;6.91;83.48
71942;DHT22;59997;53.300;-6.260;2023-03-19T15:50:21;6.87;83.77
71942;DHT22;59997;53.300;-6.260;2023-03-19T15:52:52;6.81;84.49
71942;DHT22;59997;53.300;-6.260;2023-03-19T15:55:22;6.93;85.11
71942;DHT22;59997;53.300;-6.260;2023-03-19T15:57:51;6.88;85.29
71942;DHT22;59997;53.300;-6.260;2023-03-19T16:00:17;6.88;85.18
71942;DHT22;59997;53.300;-6.260;2023-03-19T16:02:47;6.85;85.49
71942;DHT22;59997;53.300;-6.260;2023-03-19T16:05:32;6.89;85.86
71942;DHT22;59997;53.300;-6.260;2023-03-19T16:07:59;6.98;86.24
71942;DHT22;59997;53.300;-6.260;2023-03-19T16:10:44;7.07;86.54
71942;DHT22;59997;53.300;-6.260;2023-03-19T16:13:30;7.15;86.54
71942;DHT22;59997;53.300;-6.260;2023-03-19T16:16:03;7.15;86.72
71942;DHT22;59997;53.300;-6.260;2023-03-19T16:18:39;7.12;86.60
71942;DHT22;59997;53.300;-6.260;2023-03-19T16:21:19;7.07;86.76
71942;DHT22;59997;53.300;-6.260;2023-03-19T16:23:58;7.07;86.78
71942;DHT22;59997;53.300;-6.260;2023-03-19T16:26:35;7.02;86.78
71942;DHT22;59997;53.300;-6.260;2023-03-19T16:31:56;7.10;86.97
71942;DHT22;59997;53.300;-6.260;2023-03-19T16:34:25;7.03;87.05
71942;DHT22;59997;53.300;-6.260;2023-03-19T16:36:53;6.99;87.17
71942;DHT22;59997;53.300;-6.260;2023-03-19T16:39:35;7.05;87.08
71942;DHT22;59997;53.300;-6.260;2023-03-19T16:44:39;7.03;87.29
71942;DHT22;59997;53.300;-6.260;2023-03-19T16:47:13;6.99;87.32
71942;DHT22;59997;53.300;-6.260;2023-03-19T16:49:39;6.87;87.18
71942;DHT22;59997;53.300;-6.260;2023-03-19T16:52:05;6.84;87.30
71942;DHT22;59997;53.300;-6.260;2023-03-19T16:54:33;6.78;87.33
71942;DHT22;59997;53.300;-6.260;2023-03-19T16:56:59;6.78;87.20
71942;DHT22;59997;53.300;-6.260;2023-03-19T16:59:27;6.72;87.21
71942;DHT22;59997;53.300;-6.260;2023-03-19T17:01:53;6.80;87.41
71942;DHT22;59997;53.300;-6.260;2023-03-19T17:04:18;6.78;87.44
71942;DHT22;59997;53.300;-6.260;2023-03-19T17:06:44;6.87;87.57
71942;DHT22;59997;53.300;-6.260;2023-03-19T17:09:09;6.93;86.98
71942;DHT22;59997;53.300;-6.260;2023-03-19T17:11:37;6.98;87.13
71942;DHT22;59997;53.300;-6.260;2023-03-19T17:14:05;6.98;87.25
71942;DHT22;59997;53.300;-6.260;2023-03-19T17:16:32;7.00;87.32
71942;DHT22;59997;53.300;-6.260;2023-03-19T17:18:58;6.95;87.27
71942;DHT22;59997;53.300;-6.260;2023-03-19T17:21:29;6.85;87.36
71942;DHT22;59997;53.300;-6.260;2023-03-19T17:23:56;6.85;87.77
71942;DHT22;59997;53.300;-6.260;2023-03-19T17:26:23;6.88;87.79
71942;DHT22;59997;53.300;-6.260;2023-03-19T17:28:54;6.99;87.57
71942;DHT22;59997;53.300;-6.260;2023-03-19T17:31:27;6.93;87.88